Bearsville, New York
Current Conditions -  °F | °C
As of 4:53 PM on Wednesday 22 Oct 2014 (Local Time) from KPOU Reporting Station
Light Rain Light Rain  
Wind Chill: 52°   Ceiling: 1400
Heat Index: 52°   Visibility: 2.5mi
Dew Point: 48°   Wind: 9mph
Humidity: 86%   Direction: 360°N
Pressure: 29.9"   Gusts: NA
Location:  42.04°N, 74.16°W
Report Text: KPOU 222053Z 36008KT 2 1/2SM -RA BR BKN014 OVC019 11/09 A2990 RMK AO2 RAB1954 SLP123 P0002 60005 T01110089 56012
Loading
Personal Weather Stations






























Interactive Weather Map
Tropical Storm Tracking
New forecast layout! Learn more

10-Day Weather Forecast

Advertisements
Track Severe Weather on mobile